createdAt,value
2018-03-02T00:00:40.807Z,48.20
2018-03-02T00:01:40.975Z,50.60
2018-03-02T00:02:41.149Z,50.30
2018-03-02T00:03:41.313Z,50.10
2018-03-02T00:04:41.480Z,49.70
2018-03-02T00:05:41.659Z,53.00
2018-03-02T00:06:41.826Z,49.90
2018-03-02T00:07:41.994Z,50.90
2018-03-02T00:08:42.165Z,48.70
2018-03-02T00:09:42.336Z,49.20
2018-03-02T00:10:42.500Z,51.70
2018-03-02T00:11:42.674Z,48.40
2018-03-02T00:12:42.831Z,51.70
2018-03-02T00:13:43.006Z,54.90
2018-03-02T00:14:43.168Z,53.60
2018-03-02T00:15:43.339Z,49.70
2018-03-02T00:16:43.508Z,53.80
2018-03-02T00:17:43.675Z,52.90
2018-03-02T00:18:43.847Z,50.60
2018-03-02T00:19:44.017Z,50.90
2018-03-02T00:20:44.180Z,52.20
2018-03-02T00:21:44.348Z,52.50
2018-03-02T00:22:44.519Z,54.40
2018-03-02T00:23:44.686Z,52.10
2018-03-02T00:24:44.855Z,54.10
2018-03-02T00:25:45.023Z,53.40
2018-03-02T00:26:45.191Z,57.50
2018-03-02T00:27:45.360Z,53.20
2018-03-02T00:28:45.531Z,51.50
2018-03-02T00:29:45.693Z,56.10
2018-03-02T00:30:45.865Z,51.00
2018-03-02T00:31:46.046Z,51.90
2018-03-02T00:32:46.200Z,57.20
2018-03-02T00:33:46.373Z,51.60
2018-03-02T00:34:46.543Z,54.50
2018-03-02T00:35:46.710Z,57.60
2018-03-02T00:36:46.880Z,55.60
2018-03-02T00:37:47.047Z,52.80
2018-03-02T00:38:47.217Z,60.20
2018-03-02T00:39:47.380Z,54.30
2018-03-02T00:40:47.552Z,53.30
2018-03-02T00:41:47.720Z,53.40
2018-03-02T00:42:47.894Z,58.40
2018-03-02T00:43:48.056Z,56.20
2018-03-02T00:44:48.236Z,55.70
2018-03-02T00:45:48.393Z,56.30
2018-03-02T00:46:48.567Z,54.10
2018-03-02T00:47:48.735Z,57.40
2018-03-02T00:48:48.904Z,61.50
2018-03-02T00:49:49.074Z,55.70
2018-03-02T00:50:49.242Z,54.80
2018-03-02T00:51:49.406Z,52.60
2018-03-02T00:52:49.576Z,56.90
2018-03-02T00:53:49.745Z,56.40
2018-03-02T00:54:49.912Z,58.10
2018-03-02T00:55:50.087Z,56.70
2018-03-02T00:56:50.255Z,56.80
2018-03-02T00:57:50.422Z,56.80
2018-03-02T00:58:50.591Z,55.60
2018-03-02T00:59:50.763Z,57.40
2018-03-02T01:00:50.925Z,56.50
2018-03-02T01:01:51.089Z,55.70
2018-03-02T01:02:51.264Z,57.00
2018-03-02T01:03:51.436Z,57.40
2018-03-02T01:04:51.608Z,59.20
2018-03-02T01:05:51.774Z,57.60
2018-03-02T01:06:51.949Z,54.00
2018-03-02T01:07:52.112Z,55.60
2018-03-02T01:08:52.278Z,59.50
2018-03-02T01:09:52.449Z,61.80
2018-03-02T01:10:52.622Z,60.30
2018-03-02T01:11:52.796Z,58.40
2018-03-02T01:12:52.951Z,56.70
2018-03-02T01:13:53.119Z,57.50
2018-03-02T01:14:53.287Z,56.50
2018-03-02T01:15:53.464Z,56.70
2018-03-02T01:16:53.629Z,60.20
2018-03-02T01:17:53.791Z,60.80
2018-03-02T01:18:53.963Z,56.60
2018-03-02T01:19:54.127Z,61.80
2018-03-02T01:20:54.305Z,56.80
2018-03-02T01:21:54.464Z,57.50
2018-03-02T01:22:54.633Z,61.00
2018-03-02T01:23:54.802Z,55.60
2018-03-02T01:24:54.972Z,57.90
2018-03-02T01:25:55.143Z,60.10
2018-03-02T01:26:55.309Z,58.60
2018-03-02T01:27:55.478Z,58.40
2018-03-02T01:28:55.651Z,60.00
2018-03-02T01:29:55.816Z,58.40
2018-03-02T01:30:55.979Z,58.10
2018-03-02T01:31:56.214Z,59.80
2018-03-02T01:32:56.301Z,60.60
2018-03-02T01:33:56.471Z,60.20
2018-03-02T01:34:56.641Z,59.30
2018-03-02T01:35:56.799Z,62.20
2018-03-02T01:36:56.969Z,59.70
2018-03-02T01:37:57.139Z,57.50
2018-03-02T01:38:57.305Z,62.40
2018-03-02T01:39:57.710Z,58.10
2018-03-02T01:40:57.636Z,54.60
2018-03-02T01:41:57.821Z,56.50
2018-03-02T01:43:58.139Z,58.50
2018-03-02T01:44:58.305Z,60.10
2018-03-02T01:45:58.466Z,59.90
2018-03-02T01:46:58.635Z,55.50
2018-03-02T01:47:58.804Z,60.90
2018-03-02T01:48:58.964Z,60.60
2018-03-02T01:49:59.136Z,59.80
2018-03-02T01:50:59.304Z,59.20
2018-03-02T01:51:59.469Z,55.80
2018-03-02T01:52:59.638Z,55.80
2018-03-02T01:53:59.806Z,58.20
2018-03-02T01:54:59.971Z,57.20
2018-03-02T01:56:00.472Z,57.80
2018-03-02T01:57:00.310Z,58.60
2018-03-02T01:58:00.481Z,57.60
2018-03-02T01:59:00.639Z,59.20
2018-03-02T02:00:00.804Z,58.70
2018-03-02T02:01:00.978Z,62.00
2018-03-02T02:02:01.153Z,58.70
2018-03-02T02:03:01.318Z,60.30
2018-03-02T02:04:01.480Z,63.50
2018-03-02T02:05:01.648Z,61.50
2018-03-02T02:06:01.812Z,60.70
2018-03-02T02:07:01.982Z,64.60
2018-03-02T02:08:02.152Z,56.10
2018-03-02T02:09:02.317Z,59.00
2018-03-02T02:10:02.487Z,61.60
2018-03-02T02:11:02.651Z,65.30
2018-03-02T02:12:02.820Z,61.80
2018-03-02T02:13:02.988Z,60.70
2018-03-02T02:14:03.153Z,58.40
2018-03-02T02:15:03.323Z,60.50
2018-03-02T02:16:03.491Z,61.70
2018-03-02T02:17:03.658Z,60.50
2018-03-02T02:18:03.831Z,61.60
2018-03-02T02:19:03.997Z,60.20
2018-03-02T02:20:04.165Z,61.20
2018-03-02T02:21:04.329Z,61.60
2018-03-02T02:22:04.502Z,65.40
2018-03-02T02:23:04.672Z,60.70
2018-03-02T02:24:04.840Z,61.60
2018-03-02T02:25:05.001Z,61.70
2018-03-02T02:26:05.167Z,65.20
2018-03-02T02:27:05.335Z,60.30
2018-03-02T02:28:05.501Z,64.00
2018-03-02T02:29:05.669Z,63.80
2018-03-02T02:30:05.845Z,64.00
2018-03-02T02:31:06.006Z,62.80
2018-03-02T02:32:06.173Z,65.70
2018-03-02T02:33:06.339Z,60.00
2018-03-02T02:34:06.509Z,60.00
2018-03-02T02:35:06.671Z,62.50
2018-03-02T02:36:06.847Z,62.60
2018-03-02T02:37:07.015Z,61.90
2018-03-02T02:38:07.182Z,62.80
2018-03-02T02:39:07.348Z,61.10
2018-03-02T02:40:07.514Z,63.70
2018-03-02T02:41:07.682Z,60.60
2018-03-02T02:42:07.849Z,65.20
2018-03-02T02:43:08.022Z,63.00
2018-03-02T02:44:08.200Z,60.70
2018-03-02T02:45:08.361Z,61.80
2018-03-02T02:46:08.529Z,59.40
2018-03-02T02:47:08.699Z,61.80
2018-03-02T02:48:08.863Z,63.60
2018-03-02T02:49:09.029Z,59.70
2018-03-02T02:50:09.202Z,63.80
2018-03-02T02:51:09.366Z,64.10
2018-03-02T02:52:09.538Z,60.90
2018-03-02T02:53:09.708Z,64.60
2018-03-02T02:54:09.874Z,61.50
2018-03-02T02:55:10.037Z,61.20
2018-03-02T02:56:10.203Z,64.20
2018-03-02T02:57:10.374Z,61.90
2018-03-02T02:58:10.540Z,64.80
2018-03-02T02:59:10.710Z,63.90
2018-03-02T03:00:10.877Z,62.40
2018-03-02T03:01:11.045Z,60.20
2018-03-02T03:02:11.209Z,63.40
2018-03-02T03:03:11.381Z,64.70
2018-03-02T03:04:11.542Z,63.80
2018-03-02T03:05:11.711Z,62.10
2018-03-02T03:06:11.876Z,64.40
2018-03-02T03:07:12.048Z,60.70
2018-03-02T03:08:12.228Z,61.50
2018-03-02T03:09:12.380Z,65.10
2018-03-02T03:10:12.558Z,61.30
2018-03-02T03:11:12.705Z,62.80
2018-03-02T03:12:12.875Z,62.90
2018-03-02T03:13:13.040Z,63.90
2018-03-02T03:14:13.215Z,65.50
2018-03-02T03:15:13.383Z,65.80
2018-03-02T03:16:13.550Z,65.70
2018-03-02T03:18:13.876Z,63.10
2018-03-02T03:19:14.044Z,69.00
2018-03-02T03:20:14.219Z,62.00
2018-03-02T03:21:14.384Z,61.10
2018-03-02T03:22:14.552Z,62.30
2018-03-02T03:23:14.729Z,61.30
2018-03-02T03:24:14.889Z,62.20
2018-03-02T03:25:15.059Z,64.20
2018-03-02T03:26:15.684Z,65.20
2018-03-02T03:27:15.398Z,65.10
2018-03-02T03:28:15.564Z,65.90
2018-03-02T03:29:15.730Z,63.80
2018-03-02T03:30:15.901Z,63.00
2018-03-02T03:31:16.065Z,69.90
2018-03-02T03:32:16.240Z,65.60
2018-03-02T03:33:16.408Z,67.20
2018-03-02T03:34:16.573Z,64.80
2018-03-02T03:35:16.744Z,64.50
2018-03-02T03:36:16.913Z,64.30
2018-03-02T03:37:17.129Z,64.40
2018-03-02T03:38:17.244Z,71.10
2018-03-02T03:39:17.412Z,68.20
2018-03-02T03:40:17.588Z,64.70
2018-03-02T03:41:17.751Z,66.20
2018-03-02T03:42:17.917Z,66.30
2018-03-02T03:43:18.387Z,65.50
2018-03-02T03:44:18.262Z,68.20
2018-03-02T03:45:18.420Z,69.50
2018-03-02T03:46:18.590Z,70.10
2018-03-02T03:47:18.755Z,65.20
2018-03-02T03:48:18.917Z,66.40
2018-03-02T03:49:19.086Z,66.00
2018-03-02T03:50:19.256Z,71.80
2018-03-02T03:51:19.417Z,65.70
2018-03-02T03:52:19.588Z,66.40
2018-03-02T03:53:19.751Z,67.00
2018-03-02T03:54:19.920Z,65.20
2018-03-02T03:55:20.084Z,68.50
2018-03-02T03:56:20.257Z,67.80
2018-03-02T03:57:20.420Z,68.70
2018-03-02T03:58:20.585Z,69.80
2018-03-02T03:59:20.759Z,67.40
2018-03-02T04:00:20.918Z,70.60
2018-03-02T04:01:21.081Z,64.10
2018-03-02T04:02:21.262Z,68.60
2018-03-02T04:03:21.436Z,72.00
2018-03-02T04:04:21.596Z,65.40
2018-03-02T04:05:21.772Z,70.20
2018-03-02T04:06:22.189Z,71.90
2018-03-02T04:07:22.094Z,69.80
2018-03-02T04:08:22.265Z,67.90
2018-03-02T04:09:22.436Z,69.90
2018-03-02T04:10:22.605Z,72.30
2018-03-02T04:11:22.770Z,67.80
2018-03-02T04:12:22.940Z,69.80
2018-03-02T04:13:23.106Z,70.90
2018-03-02T04:14:23.278Z,71.00
2018-03-02T04:15:23.447Z,77.40
2018-03-02T04:16:23.616Z,74.90
2018-03-02T04:17:23.782Z,71.60
2018-03-02T04:18:23.951Z,70.40
2018-03-02T04:19:24.361Z,70.80
2018-03-02T04:20:24.284Z,70.90
2018-03-02T04:21:24.452Z,69.90
2018-03-02T04:22:24.620Z,71.70
2018-03-02T04:23:24.792Z,71.70
2018-03-02T04:24:24.991Z,74.50
2018-03-02T04:25:25.123Z,71.80
2018-03-02T04:26:25.292Z,70.10
2018-03-02T04:27:25.461Z,70.60
2018-03-02T04:28:25.638Z,70.80
2018-03-02T04:29:25.806Z,70.30
2018-03-02T04:30:25.972Z,73.50
2018-03-02T04:31:26.136Z,72.80
2018-03-02T04:32:26.309Z,73.10
2018-03-02T04:33:26.470Z,67.80
2018-03-02T04:34:26.636Z,73.70
2018-03-02T04:35:26.806Z,68.90
2018-03-02T04:36:26.972Z,74.10
2018-03-02T04:37:27.142Z,70.40
2018-03-02T04:38:27.318Z,72.30
2018-03-02T04:39:27.491Z,74.20
2018-03-02T04:40:27.639Z,75.30
2018-03-02T04:41:27.810Z,74.10
2018-03-02T04:42:27.966Z,74.40
2018-03-02T04:43:28.140Z,70.70
2018-03-02T04:44:28.302Z,74.30
2018-03-02T04:45:28.712Z,73.70
2018-03-02T04:46:28.643Z,72.90
2018-03-02T04:47:28.806Z,75.90
2018-03-02T04:48:28.976Z,72.50
2018-03-02T04:49:29.140Z,70.80
2018-03-02T04:50:29.309Z,73.10
2018-03-02T04:51:29.472Z,78.10
2018-03-02T04:52:29.643Z,70.40
2018-03-02T04:53:29.810Z,70.20
2018-03-02T04:54:29.975Z,73.90
2018-03-02T04:55:30.143Z,78.70
2018-03-02T04:56:30.305Z,71.60
2018-03-02T04:57:30.473Z,74.10
2018-03-02T04:58:30.644Z,72.90
2018-03-02T04:59:30.859Z,74.00
2018-03-02T05:00:31.039Z,76.00
2018-03-02T05:01:31.203Z,76.40
2018-03-02T05:02:31.371Z,72.40
2018-03-02T05:03:31.537Z,77.40
2018-03-02T05:04:31.716Z,74.00
2018-03-02T05:05:31.875Z,75.80
2018-03-02T05:06:32.047Z,76.30
2018-03-02T05:07:32.206Z,73.70
2018-03-02T05:08:32.376Z,76.20
2018-03-02T05:09:32.540Z,72.30
2018-03-02T05:10:32.708Z,75.20
2018-03-02T05:11:32.872Z,73.30
2018-03-02T05:12:33.057Z,73.90
2018-03-02T05:13:33.187Z,74.50
2018-03-02T05:14:33.359Z,75.40
2018-03-02T05:15:33.532Z,74.20
2018-03-02T05:16:33.696Z,76.20
2018-03-02T05:17:33.862Z,74.80
2018-03-02T05:18:34.034Z,76.30
2018-03-02T05:19:34.200Z,76.40
2018-03-02T05:20:34.371Z,76.60
2018-03-02T05:21:34.538Z,77.30
2018-03-02T05:22:34.716Z,79.60
2018-03-02T05:23:34.873Z,81.70
2018-03-02T05:24:35.035Z,75.10
2018-03-02T05:25:35.203Z,82.10
2018-03-02T05:26:35.380Z,75.50
2018-03-02T05:27:35.543Z,75.50
2018-03-02T05:28:35.728Z,77.60
2018-03-02T05:29:35.879Z,79.10
2018-03-02T05:30:36.045Z,78.40
2018-03-02T05:31:36.208Z,75.00
2018-03-02T05:32:36.374Z,72.00
2018-03-02T05:33:36.547Z,78.60
2018-03-02T05:34:36.711Z,77.10
2018-03-02T05:35:36.879Z,73.70
2018-03-02T05:36:37.050Z,75.70
2018-03-02T05:37:37.215Z,73.70
2018-03-02T05:38:37.380Z,78.40
2018-03-02T05:39:37.553Z,76.50
2018-03-02T05:40:37.749Z,74.20
2018-03-02T05:41:37.876Z,80.10
2018-03-02T05:42:38.040Z,82.10
2018-03-02T05:43:38.213Z,73.00
2018-03-02T05:44:38.374Z,74.90
2018-03-02T05:45:38.542Z,76.70
2018-03-02T05:46:38.708Z,78.70
2018-03-02T05:47:38.886Z,74.30
2018-03-02T05:48:39.053Z,85.70
2018-03-02T05:49:39.222Z,69.90
2018-03-02T05:50:39.402Z,75.90
2018-03-02T05:51:39.559Z,74.80
2018-03-02T05:52:39.720Z,77.20
2018-03-02T05:53:39.898Z,80.40
2018-03-02T05:54:40.061Z,80.60
2018-03-02T05:55:40.227Z,75.40
2018-03-02T05:56:40.393Z,75.70
2018-03-02T05:57:40.561Z,74.60
2018-03-02T05:58:40.747Z,76.20
2018-03-02T05:59:40.915Z,80.00
2018-03-02T06:00:41.081Z,76.00
2018-03-02T06:01:41.254Z,78.40
2018-03-02T06:02:41.432Z,75.10
2018-03-02T06:03:41.834Z,74.90
2018-03-02T06:04:41.766Z,78.40
2018-03-02T06:05:41.934Z,78.60
2018-03-02T06:06:42.120Z,82.50
2018-03-02T06:07:42.285Z,73.40
2018-03-02T06:08:42.443Z,77.70
2018-03-02T06:09:42.612Z,78.00
2018-03-02T06:10:42.782Z,77.40
2018-03-02T06:11:42.965Z,77.10
2018-03-02T06:12:43.119Z,78.70
2018-03-02T06:13:43.293Z,75.90
2018-03-02T06:14:43.455Z,81.30
2018-03-02T06:15:43.619Z,75.20
2018-03-02T06:16:44.033Z,80.20
2018-03-02T06:17:43.958Z,74.50
2018-03-02T06:18:44.128Z,78.20
2018-03-02T06:19:44.295Z,76.50
2018-03-02T06:20:44.465Z,76.20
2018-03-02T06:21:44.623Z,79.50
2018-03-02T06:22:44.814Z,76.70
2018-03-02T06:23:44.956Z,80.90
2018-03-02T06:24:45.134Z,78.60
2018-03-02T06:25:45.291Z,79.90
2018-03-02T06:26:45.471Z,77.60
2018-03-02T06:27:45.620Z,80.80
2018-03-02T06:28:45.787Z,80.70
2018-03-02T06:29:45.960Z,78.10
2018-03-02T06:30:46.124Z,76.90
2018-03-02T06:31:46.294Z,78.40
2018-03-02T06:32:46.459Z,78.90
2018-03-02T06:33:46.633Z,80.00
2018-03-02T06:34:46.800Z,80.20
2018-03-02T06:35:46.962Z,76.60
2018-03-02T06:36:47.124Z,77.30
2018-03-02T06:37:47.296Z,75.50
2018-03-02T06:38:47.464Z,80.30
2018-03-02T06:39:47.626Z,77.30
2018-03-02T06:40:47.801Z,74.10
2018-03-02T06:41:47.958Z,78.20
2018-03-02T06:42:48.386Z,74.50
2018-03-02T06:43:48.303Z,76.90
2018-03-02T06:44:48.468Z,79.20
2018-03-02T06:45:48.629Z,79.40
2018-03-02T06:46:48.799Z,78.00
2018-03-02T06:47:48.967Z,78.00
2018-03-02T06:48:49.135Z,81.30
2018-03-02T06:49:49.302Z,82.50
2018-03-02T06:50:49.467Z,80.30
2018-03-02T06:51:49.638Z,80.00
2018-03-02T06:52:49.795Z,77.50
2018-03-02T06:53:49.970Z,77.30
2018-03-02T06:54:50.139Z,79.00
2018-03-02T06:55:50.855Z,77.30
2018-03-02T06:56:50.463Z,78.00
2018-03-02T06:57:50.629Z,78.00
2018-03-02T06:58:50.793Z,80.20
2018-03-02T06:59:50.959Z,80.00
2018-03-02T07:00:51.125Z,78.10
2018-03-02T07:01:51.302Z,81.50
2018-03-02T07:02:51.472Z,80.90
2018-03-02T07:03:51.633Z,74.30
2018-03-02T07:04:51.809Z,81.20
2018-03-02T07:05:51.962Z,79.60
2018-03-02T07:06:52.128Z,83.70
2018-03-02T07:07:52.304Z,77.60
2018-03-02T07:08:52.467Z,80.60
2018-03-02T07:09:52.635Z,80.60
2018-03-02T07:10:52.809Z,79.80
2018-03-02T07:11:52.973Z,82.30
2018-03-02T07:12:53.136Z,77.60
2018-03-02T07:13:53.309Z,81.50
2018-03-02T07:14:53.467Z,80.30
2018-03-02T07:15:53.638Z,80.70
2018-03-02T07:16:53.818Z,79.90
2018-03-02T07:17:53.985Z,81.00
2018-03-02T07:18:54.157Z,84.00
2018-03-02T07:19:54.318Z,77.00
2018-03-02T07:20:54.484Z,83.20
2018-03-02T07:21:54.650Z,81.20
2018-03-02T07:22:54.878Z,81.10
2018-03-02T07:23:54.987Z,80.70
2018-03-02T07:24:55.157Z,80.20
2018-03-02T07:25:55.325Z,78.90
2018-03-02T07:26:55.485Z,76.20
2018-03-02T07:27:55.654Z,82.50
2018-03-02T07:28:55.832Z,81.80
2018-03-02T07:29:55.993Z,76.80
2018-03-02T07:30:56.181Z,78.50
2018-03-02T07:31:56.327Z,80.50
2018-03-02T07:32:56.485Z,76.50
2018-03-02T07:33:56.645Z,82.60
2018-03-02T07:34:56.861Z,77.90
2018-03-02T07:35:57.011Z,80.00
2018-03-02T07:36:57.296Z,77.00
2018-03-02T07:37:57.365Z,78.90
2018-03-02T07:38:57.529Z,76.50
2018-03-02T07:39:57.698Z,81.60
2018-03-02T07:40:57.870Z,82.00
2018-03-02T07:41:58.032Z,78.40
2018-03-02T07:42:58.199Z,78.70
2018-03-02T07:43:58.371Z,79.50
2018-03-02T07:44:58.530Z,82.00
2018-03-02T07:45:58.700Z,79.10
2018-03-02T07:46:58.865Z,75.60
2018-03-02T07:47:59.051Z,77.80
2018-03-02T07:48:59.207Z,81.40
2018-03-02T07:49:59.372Z,82.00
2018-03-02T07:50:59.546Z,77.40
2018-03-02T07:51:59.709Z,79.30
2018-03-02T07:52:59.877Z,81.20
2018-03-02T07:54:00.066Z,81.10
2018-03-02T07:55:00.206Z,82.00
2018-03-02T07:56:00.373Z,79.70
2018-03-02T07:57:00.557Z,76.50
2018-03-02T07:58:00.716Z,76.80
2018-03-02T07:59:00.881Z,77.00
2018-03-02T08:00:01.049Z,78.70
2018-03-02T08:01:01.221Z,77.80
2018-03-02T08:02:01.386Z,79.10
2018-03-02T08:03:01.556Z,74.90
2018-03-02T08:04:01.986Z,76.90
2018-03-02T08:05:01.893Z,76.20
2018-03-02T08:06:02.068Z,78.60
2018-03-02T08:07:02.241Z,70.60
2018-03-02T08:08:02.388Z,72.10
2018-03-02T08:09:02.554Z,77.60
2018-03-02T08:10:02.722Z,72.90
2018-03-02T08:11:02.890Z,75.40
2018-03-02T08:12:03.062Z,73.20
2018-03-02T08:13:03.233Z,83.20
2018-03-02T08:14:03.408Z,78.80
2018-03-02T08:15:03.571Z,75.00
2018-03-02T08:16:03.740Z,71.90
2018-03-02T08:17:03.913Z,73.00
2018-03-02T08:18:04.062Z,69.40
2018-03-02T08:19:04.238Z,68.70
2018-03-02T08:20:04.413Z,70.10
2018-03-02T08:21:04.580Z,71.70
2018-03-02T08:22:04.762Z,70.40
2018-03-02T08:23:04.920Z,71.00
2018-03-02T08:24:05.085Z,68.50
2018-03-02T08:25:05.254Z,68.30
2018-03-02T08:26:05.433Z,72.70
2018-03-02T08:27:05.602Z,70.90
2018-03-02T08:28:05.770Z,69.70
2018-03-02T08:29:05.940Z,69.60
2018-03-02T08:31:06.281Z,71.50
2018-03-02T08:32:06.450Z,71.10
2018-03-02T08:33:06.615Z,67.00
2018-03-02T08:34:06.786Z,66.60
2018-03-02T08:35:06.959Z,74.60
2018-03-02T08:36:07.132Z,65.90
2018-03-02T08:37:07.328Z,68.10
2018-03-02T08:38:07.467Z,71.60
2018-03-02T08:39:07.650Z,68.10
2018-03-02T08:40:08.198Z,69.60
2018-03-02T08:41:07.983Z,71.30
2018-03-02T08:42:08.156Z,66.40
2018-03-02T08:44:08.486Z,70.00
2018-03-02T08:45:08.674Z,70.10
2018-03-02T08:46:08.843Z,69.90
2018-03-02T08:47:09.017Z,68.30
2018-03-02T08:48:09.189Z,72.80
2018-03-02T08:49:09.359Z,68.20
2018-03-02T08:50:09.536Z,71.80
2018-03-02T08:51:09.703Z,69.40
2018-03-02T08:52:09.870Z,66.60
2018-03-02T08:53:10.049Z,72.70
2018-03-02T08:54:10.228Z,67.80
2018-03-02T08:55:10.396Z,68.90
2018-03-02T08:56:10.555Z,69.90
2018-03-02T08:57:10.740Z,66.00
2018-03-02T08:58:10.904Z,69.20
2018-03-02T08:59:11.084Z,69.90
2018-03-02T09:00:11.251Z,71.80
2018-03-02T09:01:11.435Z,69.10
2018-03-02T09:02:11.599Z,65.30
2018-03-02T09:04:11.957Z,67.90
2018-03-02T09:05:12.136Z,62.50
2018-03-02T09:06:12.318Z,65.70
2018-03-02T09:07:12.483Z,66.10
2018-03-02T09:08:12.657Z,67.90
2018-03-02T09:09:12.837Z,67.00
2018-03-02T09:10:12.998Z,66.80
2018-03-02T09:11:13.167Z,67.40
2018-03-02T09:12:13.349Z,69.20
2018-03-02T09:13:13.514Z,61.70
2018-03-02T09:14:13.683Z,68.20
2018-03-02T09:15:13.855Z,67.90
2018-03-02T09:16:14.034Z,63.60
2018-03-02T09:17:14.216Z,64.30
2018-03-02T09:18:14.393Z,69.50
2018-03-02T09:19:14.551Z,68.90
2018-03-02T09:20:14.731Z,66.10
2018-03-02T09:21:14.880Z,65.90
2018-03-02T09:22:15.075Z,67.90
2018-03-02T09:23:15.246Z,69.30
2018-03-02T09:24:15.422Z,69.40
2018-03-02T09:25:15.609Z,65.30
2018-03-02T09:26:15.790Z,62.90
2018-03-02T09:27:15.948Z,67.80
2018-03-02T09:28:16.117Z,66.10
2018-03-02T09:29:16.289Z,62.90
2018-03-02T09:30:16.468Z,67.90
2018-03-02T09:31:16.637Z,65.00
2018-03-02T09:32:16.865Z,66.60
2018-03-02T09:33:16.991Z,71.10
2018-03-02T09:34:17.204Z,64.50
2018-03-02T09:35:17.332Z,63.30
2018-03-02T09:36:17.510Z,65.00
2018-03-02T09:37:17.696Z,63.30
2018-03-02T09:38:17.851Z,65.10
2018-03-02T09:39:18.026Z,67.00
2018-03-02T09:40:18.204Z,64.70
2018-03-02T09:41:18.383Z,64.10
2018-03-02T09:42:18.544Z,64.60
2018-03-02T09:43:18.718Z,69.20
2018-03-02T09:44:18.899Z,71.30
2018-03-02T09:45:19.070Z,66.90
2018-03-02T09:46:19.246Z,68.30
2018-03-02T09:47:19.425Z,65.30
2018-03-02T09:48:19.657Z,65.90
2018-03-02T09:49:19.774Z,64.40
2018-03-02T09:50:19.953Z,63.00
2018-03-02T09:51:20.125Z,66.80
2018-03-02T09:52:20.308Z,70.00
2018-03-02T09:53:20.473Z,66.60
2018-03-02T09:54:20.650Z,67.10
2018-03-02T09:55:20.827Z,66.40
2018-03-02T09:56:21.011Z,63.70
2018-03-02T09:57:21.176Z,68.40
2018-03-02T09:58:21.350Z,64.30
2018-03-02T09:59:21.530Z,64.50
2018-03-02T10:00:21.697Z,68.30
2018-03-02T10:01:21.877Z,71.40
2018-03-02T10:02:22.053Z,67.10
2018-03-02T10:03:22.224Z,70.80
2018-03-02T10:04:22.393Z,66.90
2018-03-02T10:05:22.566Z,73.50
2018-03-02T10:06:22.751Z,69.20
2018-03-02T10:07:22.943Z,70.40
2018-03-02T10:08:23.110Z,68.10
2018-03-02T10:09:23.282Z,67.90
2018-03-02T10:10:23.490Z,69.20
2018-03-02T10:11:23.635Z,65.30
2018-03-02T10:12:23.808Z,70.30
2018-03-02T10:13:23.993Z,65.30
2018-03-02T10:14:24.164Z,65.80
2018-03-02T10:15:24.348Z,67.60
2018-03-02T10:16:24.522Z,69.10
2018-03-02T10:17:24.698Z,71.00
2018-03-02T10:18:24.883Z,66.80
2018-03-02T10:19:25.065Z,67.00
2018-03-02T10:20:25.235Z,65.60
2018-03-02T10:21:25.419Z,64.50
2018-03-02T10:22:25.597Z,67.70
2018-03-02T10:23:26.180Z,69.30
2018-03-02T10:24:25.951Z,67.70
2018-03-02T10:25:26.141Z,66.20
2018-03-02T10:26:26.317Z,67.90
2018-03-02T10:27:26.492Z,67.50
2018-03-02T10:28:26.702Z,66.40
2018-03-02T10:29:26.836Z,65.00
2018-03-02T10:30:27.012Z,61.50
2018-03-02T10:31:27.191Z,62.30
2018-03-02T10:32:27.362Z,62.30
2018-03-02T10:33:27.545Z,65.80
2018-03-02T10:34:27.726Z,63.00
2018-03-02T10:35:27.894Z,67.50
2018-03-02T10:36:28.075Z,69.50
2018-03-02T10:37:28.243Z,67.20
2018-03-02T10:38:28.423Z,68.40
2018-03-02T10:39:28.596Z,67.30
2018-03-02T10:40:28.770Z,68.20
2018-03-02T10:41:28.993Z,64.60
2018-03-02T10:42:29.124Z,66.70
2018-03-02T10:43:29.288Z,65.10
2018-03-02T10:44:29.467Z,61.40
2018-03-02T10:45:29.661Z,65.10
2018-03-02T10:46:29.842Z,65.30
2018-03-02T10:47:29.995Z,67.10
2018-03-02T10:48:30.169Z,65.90
2018-03-02T10:49:30.362Z,66.70
2018-03-02T10:50:30.547Z,68.90
2018-03-02T10:51:30.723Z,65.50
2018-03-02T10:52:30.896Z,66.70
2018-03-02T10:53:31.078Z,66.60
2018-03-02T10:54:31.253Z,66.20
2018-03-02T10:55:31.436Z,66.00
2018-03-02T10:56:31.609Z,65.00
2018-03-02T10:57:52.791Z,67.70
2018-03-02T10:58:31.939Z,61.20
2018-03-02T10:59:32.106Z,66.20
2018-03-02T11:00:32.279Z,65.50
2018-03-02T11:01:32.442Z,66.70
2018-03-02T11:02:32.624Z,64.20
2018-03-02T11:03:32.804Z,62.70
2018-03-02T11:04:32.985Z,63.10
2018-03-02T11:05:33.170Z,66.70
2018-03-02T11:06:33.344Z,66.60
2018-03-02T11:07:33.531Z,66.50
2018-03-02T11:08:33.698Z,64.70
2018-03-02T11:09:33.877Z,71.10
2018-03-02T11:10:34.054Z,67.40
2018-03-02T11:11:34.223Z,64.10
2018-03-02T11:12:34.409Z,74.20
2018-03-02T11:13:34.576Z,65.50
2018-03-02T11:14:34.755Z,66.50
2018-03-02T11:15:34.931Z,66.10
2018-03-02T11:16:35.108Z,64.20
2018-03-02T11:17:35.287Z,67.60
2018-03-02T11:18:35.459Z,65.00
2018-03-02T11:19:35.644Z,69.40
2018-03-02T11:20:35.816Z,67.90
2018-03-02T11:21:36.002Z,65.70
2018-03-02T11:22:36.175Z,64.40
2018-03-02T11:23:36.359Z,65.10
2018-03-02T11:24:36.532Z,60.00
2018-03-02T11:25:36.713Z,61.10
2018-03-02T11:26:36.904Z,64.10
2018-03-02T11:27:37.078Z,66.90
2018-03-02T11:28:37.259Z,63.60
2018-03-02T11:29:37.437Z,63.70
2018-03-02T11:30:37.619Z,61.30
2018-03-02T11:31:37.798Z,65.20
2018-03-02T11:32:37.972Z,60.90
2018-03-02T11:33:38.154Z,64.40
2018-03-02T11:34:38.335Z,62.00
2018-03-02T11:35:38.512Z,62.40
2018-03-02T11:36:38.667Z,64.20
2018-03-02T11:37:38.842Z,61.70
2018-03-02T11:38:39.022Z,61.30
2018-03-02T11:39:39.206Z,60.00
2018-03-02T11:40:39.408Z,63.00
2018-03-02T11:41:39.552Z,63.50
2018-03-02T11:42:39.735Z,67.90
2018-03-02T11:43:39.908Z,68.00
2018-03-02T11:44:40.168Z,68.40
2018-03-02T11:45:40.333Z,68.50
2018-03-02T11:46:40.510Z,64.80
2018-03-02T11:47:40.697Z,67.00
2018-03-02T11:48:40.876Z,66.40
2018-03-02T11:49:41.043Z,64.30
2018-03-02T11:50:41.222Z,66.50
2018-03-02T11:51:41.415Z,63.70
2018-03-02T11:52:41.680Z,62.90
2018-03-02T11:53:41.775Z,60.80
2018-03-02T11:54:41.951Z,61.80
2018-03-02T11:55:42.116Z,63.20
2018-03-02T11:56:42.300Z,66.40
2018-03-02T11:57:42.473Z,61.80
2018-03-02T11:58:42.655Z,64.40
2018-03-02T11:59:42.819Z,66.50
2018-03-02T12:00:43.033Z,69.50
2018-03-02T12:01:43.193Z,69.80
2018-03-02T12:02:43.372Z,68.30
2018-03-02T12:03:43.552Z,62.80
2018-03-02T12:04:43.720Z,65.60
2018-03-02T12:05:43.896Z,62.80
2018-03-02T12:06:44.078Z,66.40
2018-03-02T12:08:44.439Z,59.80
2018-03-02T12:09:44.602Z,64.00
2018-03-02T12:10:44.780Z,62.30
2018-03-02T12:11:44.966Z,65.60
2018-03-02T12:12:45.140Z,63.10
2018-03-02T12:13:45.323Z,64.50
2018-03-02T12:14:45.498Z,67.20
2018-03-02T12:15:45.673Z,65.00
2018-03-02T12:16:45.930Z,65.90
2018-03-02T12:17:46.044Z,63.90
2018-03-02T12:18:46.216Z,62.50
2018-03-02T12:19:46.397Z,68.80
2018-03-02T12:20:46.571Z,63.30
2018-03-02T12:21:46.759Z,66.10
2018-03-02T12:22:46.938Z,60.60
2018-03-02T12:23:47.097Z,64.50
2018-03-02T12:24:47.583Z,60.40
2018-03-02T12:25:47.515Z,61.20
2018-03-02T12:26:47.692Z,60.90
2018-03-02T12:27:47.895Z,64.10
2018-03-02T12:28:48.037Z,63.00
2018-03-02T12:29:48.260Z,64.30
2018-03-02T12:30:48.395Z,64.80
2018-03-02T12:31:48.568Z,67.50
2018-03-02T12:32:48.744Z,62.30
2018-03-02T12:33:48.917Z,65.90
2018-03-02T12:34:49.094Z,68.50
2018-03-02T12:35:49.320Z,66.20
2018-03-02T12:36:49.428Z,63.90
2018-03-02T12:37:49.598Z,71.40
2018-03-02T12:38:49.826Z,65.40
2018-03-02T12:39:49.950Z,69.50
2018-03-02T12:40:50.125Z,62.50
2018-03-02T12:41:50.302Z,66.00
2018-03-02T12:42:50.484Z,69.10
2018-03-02T12:43:50.660Z,64.90
2018-03-02T12:44:50.828Z,67.00
2018-03-02T12:45:50.994Z,68.10
2018-03-02T12:46:51.216Z,63.60
2018-03-02T12:47:51.381Z,63.80
2018-03-02T12:48:51.558Z,66.30
2018-03-02T12:49:51.764Z,62.90
2018-03-02T12:50:51.892Z,63.40
2018-03-02T12:51:52.075Z,63.60
2018-03-02T12:52:52.239Z,65.40
2018-03-02T12:53:52.409Z,62.00
2018-03-02T12:54:52.589Z,70.10
2018-03-02T12:55:52.766Z,63.80
2018-03-02T12:56:52.936Z,61.70
2018-03-02T12:57:53.117Z,63.50
2018-03-02T12:58:53.286Z,63.00
2018-03-02T12:59:53.453Z,67.50
2018-03-02T13:00:53.640Z,66.80